sensor_id;sensor_type;location;lat;lon;timestamp;pressure;altitude;pressure_sealevel;temperature;humidity
33185;BME280;19550;42.872;25.494;2023-04-25T00:01:29;95636.69;;;11.64;100.00
33185;BME280;19550;42.872;25.494;2023-04-25T00:03:57;95626.41;;;11.64;100.00
33185;BME280;19550;42.872;25.494;2023-04-25T00:06:24;95627.22;;;11.65;100.00
33185;BME280;19550;42.872;25.494;2023-04-25T00:08:52;95612.41;;;11.61;100.00
33185;BME280;19550;42.872;25.494;2023-04-25T00:11:20;95616.91;;;11.65;100.00
33185;BME280;19550;42.872;25.494;2023-04-25T00:13:46;95625.47;;;11.60;100.00
33185;BME280;19550;42.872;25.494;2023-04-25T00:16:15;95628.03;;;11.65;100.00
33185;BME280;19550;42.872;25.494;2023-04-25T00:18:42;95619.34;;;11.54;100.00
33185;BME280;19550;42.872;25.494;2023-04-25T00:21:09;95609.41;;;11.53;100.00
33185;BME280;19550;42.872;25.494;2023-04-25T00:23:35;95618.06;;;11.52;100.00
33185;BME280;19550;42.872;25.494;2023-04-25T00:26:04;95606.41;;;11.46;100.00
33185;BME280;19550;42.872;25.494;2023-04-25T00:28:32;95610.88;;;11.39;100.00
33185;BME280;19550;42.872;25.494;2023-04-25T00:30:59;95620.13;;;11.31;100.00
33185;BME280;19550;42.872;25.494;2023-04-25T00:33:26;95618.97;;;11.32;100.00
33185;BME280;19550;42.872;25.494;2023-04-25T00:35:52;95621.88;;;11.35;100.00
33185;BME280;19550;42.872;25.494;2023-04-25T00:38:19;95616.34;;;11.35;100.00
33185;BME280;19550;42.872;25.494;2023-04-25T00:40:46;95608.59;;;11.41;100.00
33185;BME280;19550;42.872;25.494;2023-04-25T00:43:13;95599.09;;;11.30;100.00
33185;BME280;19550;42.872;25.494;2023-04-25T00:45:42;95594.81;;;11.32;100.00
33185;BME280;19550;42.872;25.494;2023-04-25T00:48:10;95592.50;;;11.34;100.00
33185;BME280;19550;42.872;25.494;2023-04-25T00:50:37;95588.00;;;11.42;100.00
33185;BME280;19550;42.872;25.494;2023-04-25T00:53:04;95587.63;;;11.31;100.00
33185;BME280;19550;42.872;25.494;2023-04-25T00:55:31;95583.72;;;11.32;100.00
33185;BME280;19550;42.872;25.494;2023-04-25T00:58:00;95571.00;;;11.31;100.00
33185;BME280;19550;42.872;25.494;2023-04-25T01:00:26;95572.53;;;11.29;100.00
33185;BME280;19550;42.872;25.494;2023-04-25T01:02:55;95570.66;;;11.33;100.00
33185;BME280;19550;42.872;25.494;2023-04-25T01:05:22;95570.31;;;11.34;100.00
33185;BME280;19550;42.872;25.494;2023-04-25T01:07:49;95568.22;;;11.31;100.00
33185;BME280;19550;42.872;25.494;2023-04-25T01:10:16;95565.59;;;11.35;100.00
33185;BME280;19550;42.872;25.494;2023-04-25T01:12:42;95561.75;;;11.27;100.00
33185;BME280;19550;42.872;25.494;2023-04-25T01:15:09;95550.19;;;11.25;100.00
33185;BME280;19550;42.872;25.494;2023-04-25T01:17:36;95556.69;;;11.29;100.00
33185;BME280;19550;42.872;25.494;2023-04-25T01:20:08;95544.63;;;11.37;100.00
33185;BME280;19550;42.872;25.494;2023-04-25T01:22:37;95543.25;;;11.31;100.00
33185;BME280;19550;42.872;25.494;2023-04-25T01:25:05;95544.19;;;11.23;100.00
33185;BME280;19550;42.872;25.494;2023-04-25T01:27:32;95535.63;;;11.16;100.00
33185;BME280;19550;42.872;25.494;2023-04-25T01:29:59;95528.56;;;11.19;100.00
33185;BME280;19550;42.872;25.494;2023-04-25T01:32:26;95526.75;;;11.23;100.00
33185;BME280;19550;42.872;25.494;2023-04-25T01:34:53;95524.31;;;11.21;100.00
33185;BME280;19550;42.872;25.494;2023-04-25T01:37:20;95516.81;;;11.22;100.00
33185;BME280;19550;42.872;25.494;2023-04-25T01:39:48;95513.22;;;11.21;100.00
33185;BME280;19550;42.872;25.494;2023-04-25T01:42:15;95517.94;;;11.21;100.00
33185;BME280;19550;42.872;25.494;2023-04-25T01:44:42;95506.03;;;11.20;100.00
33185;BME280;19550;42.872;25.494;2023-04-25T01:47:09;95502.81;;;11.18;100.00
33185;BME280;19550;42.872;25.494;2023-04-25T01:49:36;95500.16;;;11.22;100.00
33185;BME280;19550;42.872;25.494;2023-04-25T01:52:03;95493.22;;;11.15;100.00
33185;BME280;19550;42.872;25.494;2023-04-25T01:54:30;95488.94;;;11.18;100.00
33185;BME280;19550;42.872;25.494;2023-04-25T01:56:58;95491.94;;;11.13;100.00
33185;BME280;19550;42.872;25.494;2023-04-25T01:59:25;95485.25;;;11.14;100.00
33185;BME280;19550;42.872;25.494;2023-04-25T02:01:52;95483.84;;;11.08;100.00
33185;BME280;19550;42.872;25.494;2023-04-25T02:04:19;95489.16;;;11.13;100.00
33185;BME280;19550;42.872;25.494;2023-04-25T02:06:46;95471.03;;;11.15;100.00
33185;BME280;19550;42.872;25.494;2023-04-25T02:09:12;95482.81;;;11.12;100.00
33185;BME280;19550;42.872;25.494;2023-04-25T02:11:39;95465.69;;;11.10;100.00
33185;BME280;19550;42.872;25.494;2023-04-25T02:14:07;95472.44;;;11.09;100.00
33185;BME280;19550;42.872;25.494;2023-04-25T02:16:34;95472.88;;;10.99;100.00
33185;BME280;19550;42.872;25.494;2023-04-25T02:19:01;95466.84;;;10.97;100.00
33185;BME280;19550;42.872;25.494;2023-04-25T02:21:28;95466.50;;;10.99;100.00
33185;BME280;19550;42.872;25.494;2023-04-25T02:23:55;95468.94;;;11.00;100.00
33185;BME280;19550;42.872;25.494;2023-04-25T02:26:22;95460.28;;;11.02;100.00
33185;BME280;19550;42.872;25.494;2023-04-25T02:28:50;95455.66;;;11.06;100.00
33185;BME280;19550;42.872;25.494;2023-04-25T02:31:18;95466.06;;;10.97;100.00
33185;BME280;19550;42.872;25.494;2023-04-25T02:33:45;95462.00;;;10.94;100.00
33185;BME280;19550;42.872;25.494;2023-04-25T02:36:12;95464.91;;;10.98;100.00
33185;BME280;19550;42.872;25.494;2023-04-25T02:38:39;95462.69;;;10.91;100.00
33185;BME280;19550;42.872;25.494;2023-04-25T02:41:05;95466.50;;;10.87;100.00
33185;BME280;19550;42.872;25.494;2023-04-25T02:43:32;95472.88;;;10.87;100.00
33185;BME280;19550;42.872;25.494;2023-04-25T02:45:59;95465.81;;;10.77;100.00
33185;BME280;19550;42.872;25.494;2023-04-25T02:48:27;95465.47;;;10.79;100.00
33185;BME280;19550;42.872;25.494;2023-04-25T02:50:54;95468.72;;;10.81;100.00
33185;BME280;19550;42.872;25.494;2023-04-25T02:53:21;95484.19;;;10.82;100.00
33185;BME280;19550;42.872;25.494;2023-04-25T02:55:48;95476.06;;;10.77;100.00
33185;BME280;19550;42.872;25.494;2023-04-25T02:58:15;95476.31;;;10.72;100.00
33185;BME280;19550;42.872;25.494;2023-04-25T03:00:42;95482.88;;;10.67;100.00
33185;BME280;19550;42.872;25.494;2023-04-25T03:03:10;95472.28;;;10.69;100.00
33185;BME280;19550;42.872;25.494;2023-04-25T03:05:38;95465.78;;;10.65;100.00
33185;BME280;19550;42.872;25.494;2023-04-25T03:08:05;95482.19;;;10.70;100.00
33185;BME280;19550;42.872;25.494;2023-04-25T03:10:32;95486.38;;;10.77;100.00
33185;BME280;19550;42.872;25.494;2023-04-25T03:12:59;95476.31;;;10.72;100.00
33185;BME280;19550;42.872;25.494;2023-04-25T03:15:25;95489.25;;;10.68;100.00
33185;BME280;19550;42.872;25.494;2023-04-25T03:17:52;95485.66;;;10.67;100.00
33185;BME280;19550;42.872;25.494;2023-04-25T03:20:20;95495.59;;;10.68;100.00
33185;BME280;19550;42.872;25.494;2023-04-25T03:22:48;95493.41;;;10.74;100.00
33185;BME280;19550;42.872;25.494;2023-04-25T03:25:15;95494.22;;;10.74;100.00
33185;BME280;19550;42.872;25.494;2023-04-25T03:27:42;95502.88;;;10.73;100.00
33185;BME280;19550;42.872;25.494;2023-04-25T03:30:09;95500.56;;;10.75;100.00
33185;BME280;19550;42.872;25.494;2023-04-25T03:32:36;95487.53;;;10.75;100.00
33185;BME280;19550;42.872;25.494;2023-04-25T03:35:04;95491.78;;;10.73;100.00
33185;BME280;19550;42.872;25.494;2023-04-25T03:37:31;95500.00;;;10.69;100.00
33185;BME280;19550;42.872;25.494;2023-04-25T03:39:59;95493.63;;;10.69;100.00
33185;BME280;19550;42.872;25.494;2023-04-25T03:42:26;95492.50;;;10.82;100.00
33185;BME280;19550;42.872;25.494;2023-04-25T03:44:53;95489.25;;;10.80;100.00
33185;BME280;19550;42.872;25.494;2023-04-25T03:47:19;95486.16;;;10.82;100.00
33185;BME280;19550;42.872;25.494;2023-04-25T03:49:46;95487.28;;;10.81;100.00
33185;BME280;19550;42.872;25.494;2023-04-25T03:52:14;95482.66;;;10.85;100.00
33185;BME280;19550;42.872;25.494;2023-04-25T03:54:41;95489.84;;;10.86;100.00
33185;BME280;19550;42.872;25.494;2023-04-25T03:57:09;95488.91;;;10.82;100.00
33185;BME280;19550;42.872;25.494;2023-04-25T03:59:36;95481.28;;;10.79;100.00
33185;BME280;19550;42.872;25.494;2023-04-25T04:02:03;95494.91;;;10.84;100.00
33185;BME280;19550;42.872;25.494;2023-04-25T04:04:30;95488.13;;;10.81;100.00
33185;BME280;19550;42.872;25.494;2023-04-25T04:06:57;95485.81;;;10.83;100.00
33185;BME280;19550;42.872;25.494;2023-04-25T04:09:23;95490.78;;;10.90;100.00
33185;BME280;19550;42.872;25.494;2023-04-25T04:11:51;95491.81;;;10.85;100.00
33185;BME280;19550;42.872;25.494;2023-04-25T04:14:19;95483.72;;;10.80;100.00
33185;BME280;19550;42.872;25.494;2023-04-25T04:16:46;95492.28;;;10.87;100.00
33185;BME280;19550;42.872;25.494;2023-04-25T04:19:14;95490.78;;;10.90;100.00
33185;BME280;19550;42.872;25.494;2023-04-25T04:21:41;95489.84;;;10.86;100.00
33185;BME280;19550;42.872;25.494;2023-04-25T04:24:07;95484.06;;;10.91;100.00
33185;BME280;19550;42.872;25.494;2023-04-25T04:26:35;95489.16;;;10.89;100.00
33185;BME280;19550;42.872;25.494;2023-04-25T04:29:04;95492.38;;;10.91;100.00
33185;BME280;19550;42.872;25.494;2023-04-25T04:31:35;95480.84;;;10.89;100.00
33185;BME280;19550;42.872;25.494;2023-04-25T04:34:02;95483.28;;;10.90;100.00
33185;BME280;19550;42.872;25.494;2023-04-25T04:36:29;95480.72;;;10.97;100.00
33185;BME280;19550;42.872;25.494;2023-04-25T04:38:56;95479.69;;;11.02;100.00
33185;BME280;19550;42.872;25.494;2023-04-25T04:41:23;95475.78;;;11.03;100.00
33185;BME280;19550;42.872;25.494;2023-04-25T04:43:49;95469.75;;;11.01;100.00
33185;BME280;19550;42.872;25.494;2023-04-25T04:46:18;95472.63;;;11.04;100.00
33185;BME280;19550;42.872;25.494;2023-04-25T04:48:46;95466.50;;;11.11;100.00
33185;BME280;19550;42.872;25.494;2023-04-25T04:51:13;95469.97;;;11.20;100.00
33185;BME280;19550;42.872;25.494;2023-04-25T04:53:40;95466.97;;;11.25;100.00
33185;BME280;19550;42.872;25.494;2023-04-25T04:56:07;95468.47;;;11.35;100.00
33185;BME280;19550;42.872;25.494;2023-04-25T04:58:34;95464.09;;;11.34;100.00
33185;BME280;19550;42.872;25.494;2023-04-25T05:01:01;95459.34;;;11.34;100.00
33185;BME280;19550;42.872;25.494;2023-04-25T05:03:28;95463.03;;;11.38;100.00
33185;BME280;19550;42.872;25.494;2023-04-25T05:05:56;95464.66;;;11.39;100.00
33185;BME280;19550;42.872;25.494;2023-04-25T05:08:23;95462.91;;;11.47;100.00
33185;BME280;19550;42.872;25.494;2023-04-25T05:10:50;95460.69;;;11.52;100.00
33185;BME280;19550;42.872;25.494;2023-04-25T05:13:17;95455.72;;;11.58;100.00
33185;BME280;19550;42.872;25.494;2023-04-25T05:15:44;95457.47;;;11.63;100.00
33185;BME280;19550;42.872;25.494;2023-04-25T05:18:10;95456.78;;;11.53;100.00
33185;BME280;19550;42.872;25.494;2023-04-25T05:20:37;95457.88;;;11.65;100.00
33185;BME280;19550;42.872;25.494;2023-04-25T05:23:05;95456.97;;;11.73;100.00
33185;BME280;19550;42.872;25.494;2023-04-25T05:25:32;95462.75;;;11.80;100.00
33185;BME280;19550;42.872;25.494;2023-04-25T05:27:59;95456.69;;;11.90;100.00
33185;BME280;19550;42.872;25.494;2023-04-25T05:30:26;95458.69;;;11.89;100.00
33185;BME280;19550;42.872;25.494;2023-04-25T05:32:53;95452.31;;;11.89;100.00
33185;BME280;19550;42.872;25.494;2023-04-25T05:35:20;95456.56;;;11.99;100.00
33185;BME280;19550;42.872;25.494;2023-04-25T05:37:46;95456.22;;;12.00;100.00
33185;BME280;19550;42.872;25.494;2023-04-25T05:40:14;95459.88;;;12.04;100.00
33185;BME280;19550;42.872;25.494;2023-04-25T05:42:41;95452.00;;;12.06;100.00
33185;BME280;19550;42.872;25.494;2023-04-25T05:45:09;95451.66;;;12.08;100.00
33185;BME280;19550;42.872;25.494;2023-04-25T05:47:36;95451.53;;;12.16;100.00
33185;BME280;19550;42.872;25.494;2023-04-25T05:50:03;95448.56;;;12.25;100.00
33185;BME280;19550;42.872;25.494;2023-04-25T05:52:30;95452.47;;;12.36;100.00
33185;BME280;19550;42.872;25.494;2023-04-25T05:54:57;95456.97;;;12.41;100.00
33185;BME280;19550;42.872;25.494;2023-04-25T05:57:25;95456.53;;;12.54;100.00
33185;BME280;19550;42.872;25.494;2023-04-25T05:59:53;95457.53;;;12.62;100.00
33185;BME280;19550;42.872;25.494;2023-04-25T06:02:20;95460.41;;;12.65;100.00
33185;BME280;19550;42.872;25.494;2023-04-25T06:04:49;95455.84;;;12.73;100.00
33185;BME280;19550;42.872;25.494;2023-04-25T06:07:16;95459.31;;;12.70;100.00
33185;BME280;19550;42.872;25.494;2023-04-25T06:09:42;95451.97;;;12.78;100.00
33185;BME280;19550;42.872;25.494;2023-04-25T06:12:09;95457.09;;;12.91;100.00
33185;BME280;19550;42.872;25.494;2023-04-25T06:14:37;95450.38;;;12.92;100.00
33185;BME280;19550;42.872;25.494;2023-04-25T06:17:04;95457.81;;;13.04;100.00
33185;BME280;19550;42.872;25.494;2023-04-25T06:19:33;95454.03;;;13.12;100.00
33185;BME280;19550;42.872;25.494;2023-04-25T06:22:01;95449.72;;;13.30;100.00
33185;BME280;19550;42.872;25.494;2023-04-25T06:24:28;95460.84;;;13.46;100.00
33185;BME280;19550;42.872;25.494;2023-04-25T06:26:55;95453.47;;;13.53;100.00
33185;BME280;19550;42.872;25.494;2023-04-25T06:29:22;95452.84;;;13.60;100.00
33185;BME280;19550;42.872;25.494;2023-04-25T06:31:50;95449.03;;;13.68;100.00
33185;BME280;19550;42.872;25.494;2023-04-25T06:34:17;95443.47;;;13.68;100.00
33185;BME280;19550;42.872;25.494;2023-04-25T06:36:43;95450.88;;;13.80;100.00
33185;BME280;19550;42.872;25.494;2023-04-25T06:39:10;95451.50;;;13.89;100.00
33185;BME280;19550;42.872;25.494;2023-04-25T06:41:37;95451.56;;;13.92;100.00
33185;BME280;19550;42.872;25.494;2023-04-25T06:44:04;95454.34;;;14.12;100.00
33185;BME280;19550;42.872;25.494;2023-04-25T06:46:31;95441.00;;;14.21;100.00
33185;BME280;19550;42.872;25.494;2023-04-25T06:49:01;95451.91;;;14.29;100.00
33185;BME280;19550;42.872;25.494;2023-04-25T06:51:27;95460.28;;;14.29;100.00
33185;BME280;19550;42.872;25.494;2023-04-25T06:53:56;95454.66;;;14.45;100.00
33185;BME280;19550;42.872;25.494;2023-04-25T06:56:22;95459.94;;;14.50;100.00
33185;BME280;19550;42.872;25.494;2023-04-25T06:58:49;95460.38;;;14.52;100.00
33185;BME280;19550;42.872;25.494;2023-04-25T07:01:16;95461.81;;;14.65;100.00
33185;BME280;19550;42.872;25.494;2023-04-25T07:03:43;95457.69;;;14.79;100.00
33185;BME280;19550;42.872;25.494;2023-04-25T07:06:11;95460.84;;;14.77;100.00
33185;BME280;19550;42.872;25.494;2023-04-25T07:08:38;95464.13;;;14.83;100.00
33185;BME280;19550;42.872;25.494;2023-04-25T07:11:05;95459.69;;;15.01;100.00
33185;BME280;19550;42.872;25.494;2023-04-25T07:13:31;95458.44;;;14.98;100.00
33185;BME280;19550;42.872;25.494;2023-04-25T07:15:59;95458.00;;;15.19;100.00
33185;BME280;19550;42.872;25.494;2023-04-25T07:18:26;95460.38;;;15.43;100.00
33185;BME280;19550;42.872;25.494;2023-04-25T07:20:53;95460.91;;;15.75;100.00
33185;BME280;19550;42.872;25.494;2023-04-25T07:23:21;95464.38;;;16.25;100.00
33185;BME280;19550;42.872;25.494;2023-04-25T07:25:48;95458.00;;;16.58;100.00
33185;BME280;19550;42.872;25.494;2023-04-25T07:28:15;95478.28;;;16.81;100.00
33185;BME280;19550;42.872;25.494;2023-04-25T07:30:41;95463.13;;;16.86;100.00
33185;BME280;19550;42.872;25.494;2023-04-25T07:33:08;95457.06;;;16.80;100.00
33185;BME280;19550;42.872;25.494;2023-04-25T07:35:35;95464.56;;;17.09;100.00
33185;BME280;19550;42.872;25.494;2023-04-25T07:38:02;95468.28;;;17.21;100.00
33185;BME280;19550;42.872;25.494;2023-04-25T07:40:30;95466.25;;;17.18;100.00
33185;BME280;19550;42.872;25.494;2023-04-25T07:42:57;95475.34;;;17.07;100.00
33185;BME280;19550;42.872;25.494;2023-04-25T07:45:24;95463.00;;;17.12;100.00
33185;BME280;19550;42.872;25.494;2023-04-25T07:47:50;95468.88;;;17.44;99.81
33185;BME280;19550;42.872;25.494;2023-04-25T07:50:17;95469.31;;;17.49;90.30
33185;BME280;19550;42.872;25.494;2023-04-25T07:52:44;95461.63;;;17.91;92.15
33185;BME280;19550;42.872;25.494;2023-04-25T07:55:11;95459.47;;;18.35;79.82
33185;BME280;19550;42.872;25.494;2023-04-25T07:57:39;95456.09;;;18.84;80.22
33185;BME280;19550;42.872;25.494;2023-04-25T08:00:07;95452.09;;;19.03;70.61
33185;BME280;19550;42.872;25.494;2023-04-25T08:02:37;95452.16;;;19.38;70.74
33185;BME280;19550;42.872;25.494;2023-04-25T08:05:04;95450.97;;;19.78;70.52
33185;BME280;19550;42.872;25.494;2023-04-25T08:07:33;95458.22;;;19.72;72.77
33185;BME280;19550;42.872;25.494;2023-04-25T08:10:00;95457.78;;;19.88;71.92
33185;BME280;19550;42.872;25.494;2023-04-25T08:12:27;95456.59;;;19.50;70.10
33185;BME280;19550;42.872;25.494;2023-04-25T08:14:55;95465.81;;;19.61;69.09
33185;BME280;19550;42.872;25.494;2023-04-25T08:17:22;95458.59;;;19.39;70.80
33185;BME280;19550;42.872;25.494;2023-04-25T08:19:49;95463.41;;;19.45;69.67
33185;BME280;19550;42.872;25.494;2023-04-25T08:22:15;95464.19;;;19.35;69.30
33185;BME280;19550;42.872;25.494;2023-04-25T08:24:42;95466.66;;;19.48;71.54
33185;BME280;19550;42.872;25.494;2023-04-25T08:27:09;95465.06;;;19.47;65.89
33185;BME280;19550;42.872;25.494;2023-04-25T08:29:36;95461.81;;;19.55;64.26
33185;BME280;19550;42.872;25.494;2023-04-25T08:32:04;95465.81;;;20.00;65.97
33185;BME280;19550;42.872;25.494;2023-04-25T08:34:31;95460.59;;;20.06;63.42
33185;BME280;19550;42.872;25.494;2023-04-25T08:36:58;95461.00;;;19.69;62.54
33185;BME280;19550;42.872;25.494;2023-04-25T08:39:25;95460.22;;;19.65;65.08
33185;BME280;19550;42.872;25.494;2023-04-25T08:41:52;95456.56;;;19.25;64.54
33185;BME280;19550;42.872;25.494;2023-04-25T08:44:19;95454.19;;;19.34;65.63
33185;BME280;19550;42.872;25.494;2023-04-25T08:46:47;95443.75;;;19.53;64.27
33185;BME280;19550;42.872;25.494;2023-04-25T08:49:17;95438.91;;;19.92;64.77
33185;BME280;19550;42.872;25.494;2023-04-25T08:51:46;95447.34;;;19.89;62.75
33185;BME280;19550;42.872;25.494;2023-04-25T08:54:14;95439.31;;;19.83;63.53
33185;BME280;19550;42.872;25.494;2023-04-25T08:56:44;95446.94;;;19.90;65.87
33185;BME280;19550;42.872;25.494;2023-04-25T08:59:11;95447.31;;;20.03;63.46
33185;BME280;19550;42.872;25.494;2023-04-25T09:01:39;95449.69;;;20.18;62.12
33185;BME280;19550;42.872;25.494;2023-04-25T09:04:05;95442.81;;;20.30;63.00
33185;BME280;19550;42.872;25.494;2023-04-25T09:06:34;95442.75;;;20.55;63.49
33185;BME280;19550;42.872;25.494;2023-04-25T09:09:02;95442.34;;;20.60;63.28
33185;BME280;19550;42.872;25.494;2023-04-25T09:11:30;95446.06;;;20.39;62.42
33185;BME280;19550;42.872;25.494;2023-04-25T09:14:10;95444.44;;;20.35;65.41
33185;BME280;19550;42.872;25.494;2023-04-25T09:16:57;95438.06;;;19.95;63.50
33185;BME280;19550;42.872;25.494;2023-04-25T09:19:26;95432.09;;;19.72;66.41
33185;BME280;19550;42.872;25.494;2023-04-25T09:21:55;95447.75;;;19.37;65.92
33185;BME280;19550;42.872;25.494;2023-04-25T09:24:35;95446.53;;;19.21;69.80
33185;BME280;19550;42.872;25.494;2023-04-25T09:27:04;95451.72;;;18.94;67.19
33185;BME280;19550;42.872;25.494;2023-04-25T09:29:31;95453.66;;;18.72;68.73
33185;BME280;19550;42.872;25.494;2023-04-25T09:32:18;95450.00;;;18.64;70.49
33185;BME280;19550;42.872;25.494;2023-04-25T09:34:47;95461.50;;;18.42;70.22
33185;BME280;19550;42.872;25.494;2023-04-25T09:37:19;95464.66;;;18.26;80.06
33185;BME280;19550;42.872;25.494;2023-04-25T09:39:46;95493.97;;;17.74;85.54
33185;BME280;19550;42.872;25.494;2023-04-25T09:42:13;95508.38;;;16.28;82.04
33185;BME280;19550;42.872;25.494;2023-04-25T09:44:44;95532.75;;;15.75;88.78
33185;BME280;19550;42.872;25.494;2023-04-25T09:47:12;95541.59;;;15.54;90.01
33185;BME280;19550;42.872;25.494;2023-04-25T09:49:40;95561.03;;;15.05;96.19
33185;BME280;19550;42.872;25.494;2023-04-25T09:52:09;95559.34;;;14.43;100.00
33185;BME280;19550;42.872;25.494;2023-04-25T09:54:37;95560.56;;;14.26;100.00
33185;BME280;19550;42.872;25.494;2023-04-25T09:57:10;95552.09;;;14.03;100.00
33185;BME280;19550;42.872;25.494;2023-04-25T09:59:39;95555.34;;;13.89;100.00
33185;BME280;19550;42.872;25.494;2023-04-25T10:02:07;95551.38;;;13.56;100.00
33185;BME280;19550;42.872;25.494;2023-04-25T10:04:35;95550.03;;;13.49;100.00
33185;BME280;19550;42.872;25.494;2023-04-25T10:07:03;95542.38;;;13.31;100.00
33185;BME280;19550;42.872;25.494;2023-04-25T10:09:32;95530.25;;;13.23;100.00
33185;BME280;19550;42.872;25.494;2023-04-25T10:12:02;95526.97;;;13.33;100.00
33185;BME280;19550;42.872;25.494;2023-04-25T10:14:30;95524.25;;;13.37;100.00
33185;BME280;19550;42.872;25.494;2023-04-25T10:16:57;95521.47;;;13.52;100.00
33185;BME280;19550;42.872;25.494;2023-04-25T10:19:25;95517.41;;;13.50;100.00
33185;BME280;19550;42.872;25.494;2023-04-25T10:21:55;95514.25;;;13.67;100.00
33185;BME280;19550;42.872;25.494;2023-04-25T10:24:24;95505.31;;;13.77;100.00
33185;BME280;19550;42.872;25.494;2023-04-25T10:26:52;95508.38;;;13.88;100.00
33185;BME280;19550;42.872;25.494;2023-04-25T10:29:24;95503.22;;;13.90;100.00
33185;BME280;19550;42.872;25.494;2023-04-25T10:31:51;95497.88;;;13.81;100.00
33185;BME280;19550;42.872;25.494;2023-04-25T10:34:19;95498.47;;;13.90;100.00
33185;BME280;19550;42.872;25.494;2023-04-25T10:36:50;95493.28;;;13.89;100.00
33185;BME280;19550;42.872;25.494;2023-04-25T10:39:22;95481.06;;;13.78;100.00
33185;BME280;19550;42.872;25.494;2023-04-25T10:41:53;95500.94;;;13.76;100.00
33185;BME280;19550;42.872;25.494;2023-04-25T10:44:20;95485.28;;;13.87;100.00
33185;BME280;19550;42.872;25.494;2023-04-25T10:46:48;95481.88;;;13.78;100.00
33185;BME280;19550;42.872;25.494;2023-04-25T10:49:36;95477.06;;;13.75;100.00
33185;BME280;19550;42.872;25.494;2023-04-25T10:52:17;95474.63;;;13.74;100.00
33185;BME280;19550;42.872;25.494;2023-04-25T10:54:48;95485.47;;;13.79;100.00
33185;BME280;19550;42.872;25.494;2023-04-25T10:57:32;95476.47;;;13.85;100.00
33185;BME280;19550;42.872;25.494;2023-04-25T11:00:07;95472.81;;;13.81;100.00
33185;BME280;19550;42.872;25.494;2023-04-25T11:02:45;95473.19;;;13.64;100.00
33185;BME280;19550;42.872;25.494;2023-04-25T11:05:22;95466.47;;;13.65;100.00
33185;BME280;19550;42.872;25.494;2023-04-25T11:07:51;95459.59;;;13.78;100.00
33185;BME280;19550;42.872;25.494;2023-04-25T11:10:19;95457.47;;;13.91;100.00
33185;BME280;19550;42.872;25.494;2023-04-25T11:12:46;95462.63;;;13.89;100.00
33185;BME280;19550;42.872;25.494;2023-04-25T11:15:14;95464.19;;;14.25;100.00
33185;BME280;19550;42.872;25.494;2023-04-25T11:17:41;95458.03;;;14.54;100.00
33185;BME280;19550;42.872;25.494;2023-04-25T11:20:10;95455.25;;;14.77;100.00
33185;BME280;19550;42.872;25.494;2023-04-25T11:22:39;95462.41;;;15.20;100.00
33185;BME280;19550;42.872;25.494;2023-04-25T11:25:09;95463.63;;;15.23;100.00
33185;BME280;19550;42.872;25.494;2023-04-25T11:27:38;95457.59;;;15.43;100.00
33185;BME280;19550;42.872;25.494;2023-04-25T11:30:13;95447.47;;;15.58;100.00
33185;BME280;19550;42.872;25.494;2023-04-25T11:32:41;95450.00;;;15.67;100.00
33185;BME280;19550;42.872;25.494;2023-04-25T11:35:10;95448.50;;;15.73;100.00
33185;BME280;19550;42.872;25.494;2023-04-25T11:37:38;95432.44;;;15.96;100.00
33185;BME280;19550;42.872;25.494;2023-04-25T11:40:06;95426.06;;;16.29;100.00
33185;BME280;19550;42.872;25.494;2023-04-25T11:42:36;95428.28;;;16.46;100.00
33185;BME280;19550;42.872;25.494;2023-04-25T11:45:04;95419.66;;;16.25;100.00
33185;BME280;19550;42.872;25.494;2023-04-25T11:47:32;95419.53;;;16.14;100.00
33185;BME280;19550;42.872;25.494;2023-04-25T11:49:59;95408.19;;;16.37;100.00
33185;BME280;19550;42.872;25.494;2023-04-25T11:52:37;95402.59;;;16.37;100.00
33185;BME280;19550;42.872;25.494;2023-04-25T11:55:06;95389.59;;;16.52;100.00
33185;BME280;19550;42.872;25.494;2023-04-25T11:57:33;95392.47;;;16.59;100.00
33185;BME280;19550;42.872;25.494;2023-04-25T12:00:11;95383.63;;;16.57;100.00
33185;BME280;19550;42.872;25.494;2023-04-25T12:02:43;95395.09;;;16.45;100.00
33185;BME280;19550;42.872;25.494;2023-04-25T12:05:10;95388.66;;;16.41;100.00
33185;BME280;19550;42.872;25.494;2023-04-25T12:07:39;95381.28;;;16.22;100.00
33185;BME280;19550;42.872;25.494;2023-04-25T12:10:08;95380.59;;;16.02;100.00
33185;BME280;19550;42.872;25.494;2023-04-25T12:12:36;95372.81;;;15.85;100.00
33185;BME280;19550;42.872;25.494;2023-04-25T12:15:11;95367.34;;;15.96;100.00
33185;BME280;19550;42.872;25.494;2023-04-25T12:17:38;95365.00;;;15.98;100.00
33185;BME280;19550;42.872;25.494;2023-04-25T12:20:07;95372.06;;;15.88;100.00
33185;BME280;19550;42.872;25.494;2023-04-25T12:22:34;95366.38;;;15.81;100.00
33185;BME280;19550;42.872;25.494;2023-04-25T12:25:03;95364.34;;;15.78;100.00
33185;BME280;19550;42.872;25.494;2023-04-25T12:27:31;95368.47;;;15.58;100.00
33185;BME280;19550;42.872;25.494;2023-04-25T12:29:59;95366.94;;;15.64;100.00
33185;BME280;19550;42.872;25.494;2023-04-25T12:32:25;95347.91;;;15.73;100.00
33185;BME280;19550;42.872;25.494;2023-04-25T12:34:52;95351.00;;;15.98;100.00
33185;BME280;19550;42.872;25.494;2023-04-25T12:37:19;95349.84;;;16.02;100.00
33185;BME280;19550;42.872;25.494;2023-04-25T12:39:46;95345.78;;;15.93;100.00
33185;BME280;19550;42.872;25.494;2023-04-25T12:42:14;95347.38;;;15.64;100.00
33185;BME280;19550;42.872;25.494;2023-04-25T12:44:41;95362.47;;;15.56;100.00